sensor_id;sensor_type;location;lat;lon;timestamp;temperature;humidity
6641;DHT22;3356;49.360;8.266;2022-07-03T00:00:18;18.60;95.30
6641;DHT22;3356;49.360;8.266;2022-07-03T00:02:19;18.60;95.60
6641;DHT22;3356;49.360;8.266;2022-07-03T00:04:21;18.50;96.10
6641;DHT22;3356;49.360;8.266;2022-07-03T00:06:23;18.50;95.60
6641;DHT22;3356;49.360;8.266;2022-07-03T00:08:24;18.40;95.30
6641;DHT22;3356;49.360;8.266;2022-07-03T00:10:25;18.50;96.00
6641;DHT22;3356;49.360;8.266;2022-07-03T00:12:26;18.30;96.00
6641;DHT22;3356;49.360;8.266;2022-07-03T00:14:27;18.40;96.10
6641;DHT22;3356;49.360;8.266;2022-07-03T00:16:29;18.40;96.30
6641;DHT22;3356;49.360;8.266;2022-07-03T00:18:30;18.30;95.70
6641;DHT22;3356;49.360;8.266;2022-07-03T00:20:38;18.20;96.70
6641;DHT22;3356;49.360;8.266;2022-07-03T00:22:43;18.20;96.80
6641;DHT22;3356;49.360;8.266;2022-07-03T00:24:50;18.20;96.60
6641;DHT22;3356;49.360;8.266;2022-07-03T00:26:53;18.10;96.20
6641;DHT22;3356;49.360;8.266;2022-07-03T00:28:56;18.00;96.30
6641;DHT22;3356;49.360;8.266;2022-07-03T00:30:58;18.00;95.90
6641;DHT22;3356;49.360;8.266;2022-07-03T00:33:02;18.00;96.00
6641;DHT22;3356;49.360;8.266;2022-07-03T00:35:05;18.00;95.70
6641;DHT22;3356;49.360;8.266;2022-07-03T00:37:08;18.00;96.10
6641;DHT22;3356;49.360;8.266;2022-07-03T00:39:09;18.00;95.90
6641;DHT22;3356;49.360;8.266;2022-07-03T00:41:30;18.00;96.00
6641;DHT22;3356;49.360;8.266;2022-07-03T00:43:31;18.00;96.30
6641;DHT22;3356;49.360;8.266;2022-07-03T00:45:33;17.90;95.90
6641;DHT22;3356;49.360;8.266;2022-07-03T00:47:36;17.90;96.50
6641;DHT22;3356;49.360;8.266;2022-07-03T00:49:38;17.90;96.80
6641;DHT22;3356;49.360;8.266;2022-07-03T00:51:40;17.90;97.20
6641;DHT22;3356;49.360;8.266;2022-07-03T00:53:42;17.90;97.70
6641;DHT22;3356;49.360;8.266;2022-07-03T00:55:47;17.90;98.20
6641;DHT22;3356;49.360;8.266;2022-07-03T00:57:50;17.80;98.00
6641;DHT22;3356;49.360;8.266;2022-07-03T00:59:51;17.80;97.50
6641;DHT22;3356;49.360;8.266;2022-07-03T01:02:06;17.60;98.10
6641;DHT22;3356;49.360;8.266;2022-07-03T01:06:40;17.50;98.20
6641;DHT22;3356;49.360;8.266;2022-07-03T01:08:49;17.50;98.50
6641;DHT22;3356;49.360;8.266;2022-07-03T01:10:55;17.50;98.60
6641;DHT22;3356;49.360;8.266;2022-07-03T01:15:36;17.40;99.00
6641;DHT22;3356;49.360;8.266;2022-07-03T01:17:41;17.40;99.70
6641;DHT22;3356;49.360;8.266;2022-07-03T01:19:48;17.40;99.70
6641;DHT22;3356;49.360;8.266;2022-07-03T01:27:04;17.40;99.90
6641;DHT22;3356;49.360;8.266;2022-07-03T01:29:16;17.40;99.90
6641;DHT22;3356;49.360;8.266;2022-07-03T01:31:19;17.40;99.90
6641;DHT22;3356;49.360;8.266;2022-07-03T01:33:26;17.40;99.90
6641;DHT22;3356;49.360;8.266;2022-07-03T01:35:33;17.30;99.90
6641;DHT22;3356;49.360;8.266;2022-07-03T01:37:35;17.20;99.90
6641;DHT22;3356;49.360;8.266;2022-07-03T01:39:43;17.20;99.90
6641;DHT22;3356;49.360;8.266;2022-07-03T01:41:47;17.10;99.90
6641;DHT22;3356;49.360;8.266;2022-07-03T01:43:55;17.10;99.90
6641;DHT22;3356;49.360;8.266;2022-07-03T01:45:59;17.10;99.90
6641;DHT22;3356;49.360;8.266;2022-07-03T01:48:01;17.10;99.90
6641;DHT22;3356;49.360;8.266;2022-07-03T01:50:03;17.00;99.90
6641;DHT22;3356;49.360;8.266;2022-07-03T01:52:05;16.90;99.90
6641;DHT22;3356;49.360;8.266;2022-07-03T01:54:09;17.00;99.90
6641;DHT22;3356;49.360;8.266;2022-07-03T01:56:11;17.00;99.90
6641;DHT22;3356;49.360;8.266;2022-07-03T01:58:12;16.90;99.90
6641;DHT22;3356;49.360;8.266;2022-07-03T02:00:17;16.90;99.90
6641;DHT22;3356;49.360;8.266;2022-07-03T02:02:23;16.90;99.90
6641;DHT22;3356;49.360;8.266;2022-07-03T02:09:02;16.70;99.90
6641;DHT22;3356;49.360;8.266;2022-07-03T02:11:18;16.70;99.90
6641;DHT22;3356;49.360;8.266;2022-07-03T02:13:23;16.70;99.90
6641;DHT22;3356;49.360;8.266;2022-07-03T02:15:32;16.70;99.90
6641;DHT22;3356;49.360;8.266;2022-07-03T02:17:47;16.60;99.90
6641;DHT22;3356;49.360;8.266;2022-07-03T02:21:54;16.50;99.90
6641;DHT22;3356;49.360;8.266;2022-07-03T02:26:16;16.50;99.90
6641;DHT22;3356;49.360;8.266;2022-07-03T02:29:02;16.40;99.90
6641;DHT22;3356;49.360;8.266;2022-07-03T02:30:43;16.30;99.90
6641;DHT22;3356;49.360;8.266;2022-07-03T02:32:51;16.30;99.90
6641;DHT22;3356;49.360;8.266;2022-07-03T02:35:02;16.30;99.90
6641;DHT22;3356;49.360;8.266;2022-07-03T02:37:17;16.30;99.90
6641;DHT22;3356;49.360;8.266;2022-07-03T02:39:26;16.30;99.90
6641;DHT22;3356;49.360;8.266;2022-07-03T02:41:44;16.40;99.90
6641;DHT22;3356;49.360;8.266;2022-07-03T02:43:57;16.30;99.90
6641;DHT22;3356;49.360;8.266;2022-07-03T02:46:17;16.30;99.90
6641;DHT22;3356;49.360;8.266;2022-07-03T02:48:42;16.20;99.90
6641;DHT22;3356;49.360;8.266;2022-07-03T02:50:47;16.20;99.90
6641;DHT22;3356;49.360;8.266;2022-07-03T02:53:04;16.20;99.90
6641;DHT22;3356;49.360;8.266;2022-07-03T02:57:37;16.20;99.90
6641;DHT22;3356;49.360;8.266;2022-07-03T02:59:42;16.10;99.90
6641;DHT22;3356;49.360;8.266;2022-07-03T03:02:07;16.10;99.90
6641;DHT22;3356;49.360;8.266;2022-07-03T03:04:22;16.20;99.90
6641;DHT22;3356;49.360;8.266;2022-07-03T03:06:26;16.20;99.90
6641;DHT22;3356;49.360;8.266;2022-07-03T03:10:37;16.10;99.90
6641;DHT22;3356;49.360;8.266;2022-07-03T03:12:41;16.00;99.90
6641;DHT22;3356;49.360;8.266;2022-07-03T03:14:48;16.00;99.90
6641;DHT22;3356;49.360;8.266;2022-07-03T03:16:55;15.90;99.90
6641;DHT22;3356;49.360;8.266;2022-07-03T03:18:56;16.00;99.90
6641;DHT22;3356;49.360;8.266;2022-07-03T03:20:59;16.00;99.90
6641;DHT22;3356;49.360;8.266;2022-07-03T03:25:29;15.90;99.90
6641;DHT22;3356;49.360;8.266;2022-07-03T03:27:32;15.90;99.90
6641;DHT22;3356;49.360;8.266;2022-07-03T03:29:34;15.90;99.90
6641;DHT22;3356;49.360;8.266;2022-07-03T03:31:35;15.80;99.90
6641;DHT22;3356;49.360;8.266;2022-07-03T03:33:40;15.80;99.90
6641;DHT22;3356;49.360;8.266;2022-07-03T03:35:42;15.80;99.90
6641;DHT22;3356;49.360;8.266;2022-07-03T03:37:45;15.80;99.90
6641;DHT22;3356;49.360;8.266;2022-07-03T03:39:46;15.80;99.90
6641;DHT22;3356;49.360;8.266;2022-07-03T03:41:49;15.80;99.90
6641;DHT22;3356;49.360;8.266;2022-07-03T03:43:50;15.80;99.90
6641;DHT22;3356;49.360;8.266;2022-07-03T03:45:51;15.80;99.90
6641;DHT22;3356;49.360;8.266;2022-07-03T03:47:52;15.80;99.90
6641;DHT22;3356;49.360;8.266;2022-07-03T03:49:53;15.80;99.90
6641;DHT22;3356;49.360;8.266;2022-07-03T03:51:55;15.80;99.90
6641;DHT22;3356;49.360;8.266;2022-07-03T03:53:57;15.80;99.90
6641;DHT22;3356;49.360;8.266;2022-07-03T03:56:01;15.80;99.90
6641;DHT22;3356;49.360;8.266;2022-07-03T03:58:02;15.80;99.90
6641;DHT22;3356;49.360;8.266;2022-07-03T04:00:05;15.80;99.90
6641;DHT22;3356;49.360;8.266;2022-07-03T04:02:14;15.80;99.90
6641;DHT22;3356;49.360;8.266;2022-07-03T04:04:15;15.70;99.90
6641;DHT22;3356;49.360;8.266;2022-07-03T04:06:20;15.80;99.90
6641;DHT22;3356;49.360;8.266;2022-07-03T04:08:22;15.80;99.90
6641;DHT22;3356;49.360;8.266;2022-07-03T04:10:23;15.80;99.90
6641;DHT22;3356;49.360;8.266;2022-07-03T04:12:24;15.80;99.90
6641;DHT22;3356;49.360;8.266;2022-07-03T04:14:26;15.80;99.90
6641;DHT22;3356;49.360;8.266;2022-07-03T04:16:27;15.80;99.90
6641;DHT22;3356;49.360;8.266;2022-07-03T04:18:29;15.80;99.90
6641;DHT22;3356;49.360;8.266;2022-07-03T04:20:30;15.80;99.90
6641;DHT22;3356;49.360;8.266;2022-07-03T04:22:31;15.80;99.90
6641;DHT22;3356;49.360;8.266;2022-07-03T04:24:33;15.90;99.90
6641;DHT22;3356;49.360;8.266;2022-07-03T04:26:34;15.90;99.90
6641;DHT22;3356;49.360;8.266;2022-07-03T04:28:35;15.90;99.90
6641;DHT22;3356;49.360;8.266;2022-07-03T04:30:36;15.90;99.90
6641;DHT22;3356;49.360;8.266;2022-07-03T04:32:37;15.90;99.90
6641;DHT22;3356;49.360;8.266;2022-07-03T04:34:39;16.00;99.90
6641;DHT22;3356;49.360;8.266;2022-07-03T04:36:40;16.00;99.90
6641;DHT22;3356;49.360;8.266;2022-07-03T04:38:41;16.00;99.90
6641;DHT22;3356;49.360;8.266;2022-07-03T04:40:43;16.10;99.90
6641;DHT22;3356;49.360;8.266;2022-07-03T04:42:44;16.10;99.90
6641;DHT22;3356;49.360;8.266;2022-07-03T04:44:46;16.10;99.90
6641;DHT22;3356;49.360;8.266;2022-07-03T04:46:47;16.20;99.90
6641;DHT22;3356;49.360;8.266;2022-07-03T04:48:48;16.20;99.90
6641;DHT22;3356;49.360;8.266;2022-07-03T04:50:49;16.30;99.90
6641;DHT22;3356;49.360;8.266;2022-07-03T04:52:50;16.40;99.90
6641;DHT22;3356;49.360;8.266;2022-07-03T04:54:51;16.50;99.90
6641;DHT22;3356;49.360;8.266;2022-07-03T04:56:53;16.60;99.90
6641;DHT22;3356;49.360;8.266;2022-07-03T04:58:54;16.70;99.90
6641;DHT22;3356;49.360;8.266;2022-07-03T05:00:55;16.80;99.90
6641;DHT22;3356;49.360;8.266;2022-07-03T05:02:56;16.80;99.90
6641;DHT22;3356;49.360;8.266;2022-07-03T05:04:57;17.00;99.90
6641;DHT22;3356;49.360;8.266;2022-07-03T05:06:58;17.10;99.90
6641;DHT22;3356;49.360;8.266;2022-07-03T05:09:00;17.10;99.90
6641;DHT22;3356;49.360;8.266;2022-07-03T05:11:01;17.20;99.90
6641;DHT22;3356;49.360;8.266;2022-07-03T05:13:02;17.20;99.90
6641;DHT22;3356;49.360;8.266;2022-07-03T05:15:03;17.30;99.90
6641;DHT22;3356;49.360;8.266;2022-07-03T05:17:05;17.50;99.90
6641;DHT22;3356;49.360;8.266;2022-07-03T05:19:06;17.90;99.90
6641;DHT22;3356;49.360;8.266;2022-07-03T05:21:07;18.20;99.90
6641;DHT22;3356;49.360;8.266;2022-07-03T05:23:08;18.40;99.90
6641;DHT22;3356;49.360;8.266;2022-07-03T05:25:09;18.50;99.90
6641;DHT22;3356;49.360;8.266;2022-07-03T05:27:10;18.60;99.90
6641;DHT22;3356;49.360;8.266;2022-07-03T05:29:11;18.90;99.90
6641;DHT22;3356;49.360;8.266;2022-07-03T05:31:13;19.00;99.90
6641;DHT22;3356;49.360;8.266;2022-07-03T05:33:14;19.10;99.90
6641;DHT22;3356;49.360;8.266;2022-07-03T05:35:15;19.40;99.90
6641;DHT22;3356;49.360;8.266;2022-07-03T05:37:16;19.70;99.90
6641;DHT22;3356;49.360;8.266;2022-07-03T05:39:17;20.00;99.90
6641;DHT22;3356;49.360;8.266;2022-07-03T05:41:33;20.40;99.90
6641;DHT22;3356;49.360;8.266;2022-07-03T05:43:35;21.40;99.90
6641;DHT22;3356;49.360;8.266;2022-07-03T05:45:36;22.60;98.60
6641;DHT22;3356;49.360;8.266;2022-07-03T05:47:38;23.70;96.50
6641;DHT22;3356;49.360;8.266;2022-07-03T05:49:39;24.40;95.00
6641;DHT22;3356;49.360;8.266;2022-07-03T05:51:40;24.80;91.90
6641;DHT22;3356;49.360;8.266;2022-07-03T05:53:41;25.40;91.70
6641;DHT22;3356;49.360;8.266;2022-07-03T05:55:42;25.10;91.90
6641;DHT22;3356;49.360;8.266;2022-07-03T05:57:43;25.00;90.90
6641;DHT22;3356;49.360;8.266;2022-07-03T05:59:44;25.20;90.60
6641;DHT22;3356;49.360;8.266;2022-07-03T06:01:46;25.90;90.10
6641;DHT22;3356;49.360;8.266;2022-07-03T06:03:47;26.40;88.30
6641;DHT22;3356;49.360;8.266;2022-07-03T06:05:48;27.00;88.30
6641;DHT22;3356;49.360;8.266;2022-07-03T06:07:49;28.00;82.90
6641;DHT22;3356;49.360;8.266;2022-07-03T06:09:51;28.50;79.20
6641;DHT22;3356;49.360;8.266;2022-07-03T06:11:52;28.90;77.60
6641;DHT22;3356;49.360;8.266;2022-07-03T06:13:53;29.50;77.50
6641;DHT22;3356;49.360;8.266;2022-07-03T06:15:54;29.80;75.90
6641;DHT22;3356;49.360;8.266;2022-07-03T06:17:55;30.30;74.50
6641;DHT22;3356;49.360;8.266;2022-07-03T06:19:56;30.50;74.50
6641;DHT22;3356;49.360;8.266;2022-07-03T06:21:57;31.00;71.50
6641;DHT22;3356;49.360;8.266;2022-07-03T06:23:59;31.40;69.90
6641;DHT22;3356;49.360;8.266;2022-07-03T06:26:01;32.30;69.70
6641;DHT22;3356;49.360;8.266;2022-07-03T06:28:03;32.00;69.50
6641;DHT22;3356;49.360;8.266;2022-07-03T06:30:05;32.10;70.50
6641;DHT22;3356;49.360;8.266;2022-07-03T06:32:06;32.30;67.30
6641;DHT22;3356;49.360;8.266;2022-07-03T06:34:07;32.40;70.20
6641;DHT22;3356;49.360;8.266;2022-07-03T06:36:09;33.20;66.40
6641;DHT22;3356;49.360;8.266;2022-07-03T06:38:10;33.80;67.30
6641;DHT22;3356;49.360;8.266;2022-07-03T06:40:11;33.70;65.90
6641;DHT22;3356;49.360;8.266;2022-07-03T06:42:13;34.10;65.00
6641;DHT22;3356;49.360;8.266;2022-07-03T06:44:14;34.30;65.50
6641;DHT22;3356;49.360;8.266;2022-07-03T06:46:15;34.80;64.90
6641;DHT22;3356;49.360;8.266;2022-07-03T06:48:16;35.10;60.20
6641;DHT22;3356;49.360;8.266;2022-07-03T06:50:18;35.40;59.80
6641;DHT22;3356;49.360;8.266;2022-07-03T06:52:19;36.10;58.40
6641;DHT22;3356;49.360;8.266;2022-07-03T06:54:20;36.50;58.60
6641;DHT22;3356;49.360;8.266;2022-07-03T06:56:21;36.30;57.40
6641;DHT22;3356;49.360;8.266;2022-07-03T06:58:23;36.90;55.40
6641;DHT22;3356;49.360;8.266;2022-07-03T07:00:24;37.00;56.20
6641;DHT22;3356;49.360;8.266;2022-07-03T07:02:25;37.00;56.00
6641;DHT22;3356;49.360;8.266;2022-07-03T07:04:26;36.60;57.00
6641;DHT22;3356;49.360;8.266;2022-07-03T07:06:28;37.20;55.80
6641;DHT22;3356;49.360;8.266;2022-07-03T07:08:29;38.10;54.00
6641;DHT22;3356;49.360;8.266;2022-07-03T07:10:30;38.70;53.90
6641;DHT22;3356;49.360;8.266;2022-07-03T07:12:31;38.30;54.00
6641;DHT22;3356;49.360;8.266;2022-07-03T07:14:32;39.00;52.70
6641;DHT22;3356;49.360;8.266;2022-07-03T07:16:34;39.40;52.20
6641;DHT22;3356;49.360;8.266;2022-07-03T07:18:36;39.50;51.40
6641;DHT22;3356;49.360;8.266;2022-07-03T07:20:37;39.30;52.20
6641;DHT22;3356;49.360;8.266;2022-07-03T07:22:39;39.30;52.50
6641;DHT22;3356;49.360;8.266;2022-07-03T07:24:40;39.90;50.80
6641;DHT22;3356;49.360;8.266;2022-07-03T07:26:41;40.80;51.60
6641;DHT22;3356;49.360;8.266;2022-07-03T07:28:42;41.50;49.20
6641;DHT22;3356;49.360;8.266;2022-07-03T07:30:43;41.40;49.60
6641;DHT22;3356;49.360;8.266;2022-07-03T07:32:44;41.70;49.20
6641;DHT22;3356;49.360;8.266;2022-07-03T07:34:45;41.20;50.10
6641;DHT22;3356;49.360;8.266;2022-07-03T07:36:47;41.40;48.50
6641;DHT22;3356;49.360;8.266;2022-07-03T07:38:48;41.90;50.30
6641;DHT22;3356;49.360;8.266;2022-07-03T07:40:49;42.80;48.70
6641;DHT22;3356;49.360;8.266;2022-07-03T07:42:50;43.40;47.40
6641;DHT22;3356;49.360;8.266;2022-07-03T07:44:51;43.90;46.30
6641;DHT22;3356;49.360;8.266;2022-07-03T07:46:52;43.40;45.80
6641;DHT22;3356;49.360;8.266;2022-07-03T07:48:53;43.00;46.60
6641;DHT22;3356;49.360;8.266;2022-07-03T07:50:54;43.20;46.80
6641;DHT22;3356;49.360;8.266;2022-07-03T07:52:56;44.00;46.30
6641;DHT22;3356;49.360;8.266;2022-07-03T07:54:57;44.70;45.40
6641;DHT22;3356;49.360;8.266;2022-07-03T07:56:58;45.70;43.60
6641;DHT22;3356;49.360;8.266;2022-07-03T07:58:59;45.40;42.70
6641;DHT22;3356;49.360;8.266;2022-07-03T08:01:01;45.10;42.50
6641;DHT22;3356;49.360;8.266;2022-07-03T08:03:20;45.00;44.50
6641;DHT22;3356;49.360;8.266;2022-07-03T08:05:45;45.70;43.70
6641;DHT22;3356;49.360;8.266;2022-07-03T08:07:46;44.40;42.70
6641;DHT22;3356;49.360;8.266;2022-07-03T08:09:47;44.40;43.60
6641;DHT22;3356;49.360;8.266;2022-07-03T08:11:48;45.00;42.50
6641;DHT22;3356;49.360;8.266;2022-07-03T08:13:49;44.50;43.10
6641;DHT22;3356;49.360;8.266;2022-07-03T08:15:50;45.30;41.80
6641;DHT22;3356;49.360;8.266;2022-07-03T08:17:53;45.30;41.80
6641;DHT22;3356;49.360;8.266;2022-07-03T08:19:54;45.00;41.30
6641;DHT22;3356;49.360;8.266;2022-07-03T08:21:55;45.20;42.00
6641;DHT22;3356;49.360;8.266;2022-07-03T08:23:56;45.20;41.40
6641;DHT22;3356;49.360;8.266;2022-07-03T08:25:57;45.90;41.00
6641;DHT22;3356;49.360;8.266;2022-07-03T08:27:59;45.60;41.40
6641;DHT22;3356;49.360;8.266;2022-07-03T08:30:00;45.80;40.60
6641;DHT22;3356;49.360;8.266;2022-07-03T08:32:01;46.90;41.50
6641;DHT22;3356;49.360;8.266;2022-07-03T08:34:02;47.60;40.40
6641;DHT22;3356;49.360;8.266;2022-07-03T08:36:04;49.20;38.80
6641;DHT22;3356;49.360;8.266;2022-07-03T08:38:06;48.60;40.30
6641;DHT22;3356;49.360;8.266;2022-07-03T08:40:08;49.20;37.80
6641;DHT22;3356;49.360;8.266;2022-07-03T08:42:11;49.50;38.40
6641;DHT22;3356;49.360;8.266;2022-07-03T08:44:13;49.00;38.70
6641;DHT22;3356;49.360;8.266;2022-07-03T08:46:15;48.30;39.90
6641;DHT22;3356;49.360;8.266;2022-07-03T08:48:18;48.30;39.50
6641;DHT22;3356;49.360;8.266;2022-07-03T08:50:21;49.00;39.30
6641;DHT22;3356;49.360;8.266;2022-07-03T08:52:23;49.00;37.80
6641;DHT22;3356;49.360;8.266;2022-07-03T08:54:24;49.60;37.00
6641;DHT22;3356;49.360;8.266;2022-07-03T08:56:25;50.40;36.00
6641;DHT22;3356;49.360;8.266;2022-07-03T08:58:30;50.30;34.20
6641;DHT22;3356;49.360;8.266;2022-07-03T09:00:32;49.70;36.60
6641;DHT22;3356;49.360;8.266;2022-07-03T09:02:33;50.30;35.40
6641;DHT22;3356;49.360;8.266;2022-07-03T09:04:35;50.70;34.70
6641;DHT22;3356;49.360;8.266;2022-07-03T09:06:36;50.80;36.10
6641;DHT22;3356;49.360;8.266;2022-07-03T09:08:40;51.20;34.50
6641;DHT22;3356;49.360;8.266;2022-07-03T09:10:41;50.60;35.00
6641;DHT22;3356;49.360;8.266;2022-07-03T09:12:45;50.00;35.10
6641;DHT22;3356;49.360;8.266;2022-07-03T09:14:46;50.60;34.90
6641;DHT22;3356;49.360;8.266;2022-07-03T09:16:48;50.40;32.70
6641;DHT22;3356;49.360;8.266;2022-07-03T09:18:50;47.30;35.40
6641;DHT22;3356;49.360;8.266;2022-07-03T09:21:02;47.30;34.70
6641;DHT22;3356;49.360;8.266;2022-07-03T09:23:20;44.90;39.30
6641;DHT22;3356;49.360;8.266;2022-07-03T09:25:21;46.10;39.50
6641;DHT22;3356;49.360;8.266;2022-07-03T09:27:23;45.90;34.80
6641;DHT22;3356;49.360;8.266;2022-07-03T09:29:24;44.70;36.70
6641;DHT22;3356;49.360;8.266;2022-07-03T09:31:29;43.50;42.20
6641;DHT22;3356;49.360;8.266;2022-07-03T09:33:31;42.50;44.20
6641;DHT22;3356;49.360;8.266;2022-07-03T09:35:32;43.60;41.00
6641;DHT22;3356;49.360;8.266;2022-07-03T09:37:33;44.40;39.10
6641;DHT22;3356;49.360;8.266;2022-07-03T09:39:34;44.10;39.80
6641;DHT22;3356;49.360;8.266;2022-07-03T09:42:06;43.50;39.20
6641;DHT22;3356;49.360;8.266;2022-07-03T09:44:08;42.60;38.50
6641;DHT22;3356;49.360;8.266;2022-07-03T09:46:09;42.00;41.40
6641;DHT22;3356;49.360;8.266;2022-07-03T09:50:30;41.60;39.60
6641;DHT22;3356;49.360;8.266;2022-07-03T09:52:43;41.00;43.70
6641;DHT22;3356;49.360;8.266;2022-07-03T09:54:44;41.20;43.70
6641;DHT22;3356;49.360;8.266;2022-07-03T09:56:46;41.70;42.60
6641;DHT22;3356;49.360;8.266;2022-07-03T09:59:10;41.10;41.80
6641;DHT22;3356;49.360;8.266;2022-07-03T10:01:18;41.50;43.60
6641;DHT22;3356;49.360;8.266;2022-07-03T10:03:20;41.00;41.90
6641;DHT22;3356;49.360;8.266;2022-07-03T10:05:23;39.90;41.10
6641;DHT22;3356;49.360;8.266;2022-07-03T10:07:25;39.20;45.60
6641;DHT22;3356;49.360;8.266;2022-07-03T10:09:32;39.70;43.00
6641;DHT22;3356;49.360;8.266;2022-07-03T10:11:33;40.10;44.90
6641;DHT22;3356;49.360;8.266;2022-07-03T10:13:39;39.80;45.20
6641;DHT22;3356;49.360;8.266;2022-07-03T10:15:42;39.30;44.00
6641;DHT22;3356;49.360;8.266;2022-07-03T10:17:52;39.80;45.90
6641;DHT22;3356;49.360;8.266;2022-07-03T10:19:54;40.20;45.80
6641;DHT22;3356;49.360;8.266;2022-07-03T10:22:03;39.00;45.90
6641;DHT22;3356;49.360;8.266;2022-07-03T10:24:07;39.60;46.00
6641;DHT22;3356;49.360;8.266;2022-07-03T10:26:09;39.80;45.50
6641;DHT22;3356;49.360;8.266;2022-07-03T10:28:12;39.10;44.80
6641;DHT22;3356;49.360;8.266;2022-07-03T10:30:19;39.30;44.70
6641;DHT22;3356;49.360;8.266;2022-07-03T10:32:20;39.00;46.00
6641;DHT22;3356;49.360;8.266;2022-07-03T10:34:24;39.10;44.00
6641;DHT22;3356;49.360;8.266;2022-07-03T10:36:25;39.30;44.40
6641;DHT22;3356;49.360;8.266;2022-07-03T10:38:41;39.30;43.90
6641;DHT22;3356;49.360;8.266;2022-07-03T10:43:44;38.80;46.50
6641;DHT22;3356;49.360;8.266;2022-07-03T10:46:14;38.30;46.50
6641;DHT22;3356;49.360;8.266;2022-07-03T10:48:15;38.00;47.10
6641;DHT22;3356;49.360;8.266;2022-07-03T10:50:22;38.20;47.10
6641;DHT22;3356;49.360;8.266;2022-07-03T10:52:23;38.20;45.00
6641;DHT22;3356;49.360;8.266;2022-07-03T10:54:34;37.20;45.40
6641;DHT22;3356;49.360;8.266;2022-07-03T10:59:03;37.20;46.40
6641;DHT22;3356;49.360;8.266;2022-07-03T11:01:06;36.70;47.00
6641;DHT22;3356;49.360;8.266;2022-07-03T11:03:07;37.00;45.50
6641;DHT22;3356;49.360;8.266;2022-07-03T11:07:14;37.10;46.30
6641;DHT22;3356;49.360;8.266;2022-07-03T11:09:15;37.20;46.30
6641;DHT22;3356;49.360;8.266;2022-07-03T11:14:20;37.10;47.00
6641;DHT22;3356;49.360;8.266;2022-07-03T11:16:22;37.00;47.60
6641;DHT22;3356;49.360;8.266;2022-07-03T11:18:34;36.60;46.80
6641;DHT22;3356;49.360;8.266;2022-07-03T11:24:51;36.00;49.50
6641;DHT22;3356;49.360;8.266;2022-07-03T11:27:19;36.40;47.90
6641;DHT22;3356;49.360;8.266;2022-07-03T11:29:29;36.50;48.70
6641;DHT22;3356;49.360;8.266;2022-07-03T11:31:30;36.40;48.30
6641;DHT22;3356;49.360;8.266;2022-07-03T11:35:57;35.50;48.20
6641;DHT22;3356;49.360;8.266;2022-07-03T11:37:58;35.80;50.00
6641;DHT22;3356;49.360;8.266;2022-07-03T11:40:02;35.70;47.90
6641;DHT22;3356;49.360;8.266;2022-07-03T11:42:04;35.60;48.70
6641;DHT22;3356;49.360;8.266;2022-07-03T11:44:06;35.40;50.10
6641;DHT22;3356;49.360;8.266;2022-07-03T11:46:08;35.40;48.30
6641;DHT22;3356;49.360;8.266;2022-07-03T11:48:15;35.30;50.10
6641;DHT22;3356;49.360;8.266;2022-07-03T11:50:16;35.50;49.30
6641;DHT22;3356;49.360;8.266;2022-07-03T11:52:31;35.60;48.40
6641;DHT22;3356;49.360;8.266;2022-07-03T11:54:54;35.50;47.90
6641;DHT22;3356;49.360;8.266;2022-07-03T11:56:56;35.40;46.90
6641;DHT22;3356;49.360;8.266;2022-07-03T11:58:59;34.50;48.40
6641;DHT22;3356;49.360;8.266;2022-07-03T12:01:00;34.80;51.80
6641;DHT22;3356;49.360;8.266;2022-07-03T12:03:02;34.50;50.10
6641;DHT22;3356;49.360;8.266;2022-07-03T12:05:13;34.30;51.40
6641;DHT22;3356;49.360;8.266;2022-07-03T12:07:15;34.30;51.40
6641;DHT22;3356;49.360;8.266;2022-07-03T12:09:27;34.20;50.30
6641;DHT22;3356;49.360;8.266;2022-07-03T12:11:29;34.00;51.10
6641;DHT22;3356;49.360;8.266;2022-07-03T12:13:30;33.90;51.40
6641;DHT22;3356;49.360;8.266;2022-07-03T12:15:31;34.00;51.00
6641;DHT22;3356;49.360;8.266;2022-07-03T12:17:34;34.10;49.80
6641;DHT22;3356;49.360;8.266;2022-07-03T12:19:36;34.20;50.20
6641;DHT22;3356;49.360;8.266;2022-07-03T12:21:39;34.40;52.10
6641;DHT22;3356;49.360;8.266;2022-07-03T12:23:43;34.40;51.60
6641;DHT22;3356;49.360;8.266;2022-07-03T12:25:44;34.60;51.40
6641;DHT22;3356;49.360;8.266;2022-07-03T12:27:46;34.40;51.10
6641;DHT22;3356;49.360;8.266;2022-07-03T12:29:47;34.40;51.80
6641;DHT22;3356;49.360;8.266;2022-07-03T12:31:49;34.30;52.20
6641;DHT22;3356;49.360;8.266;2022-07-03T12:33:51;34.30;50.30
6641;DHT22;3356;49.360;8.266;2022-07-03T12:36:22;34.10;52.10
6641;DHT22;3356;49.360;8.266;2022-07-03T12:38:30;33.70;50.40
6641;DHT22;3356;49.360;8.266;2022-07-03T12:40:31;33.60;51.70
6641;DHT22;3356;49.360;8.266;2022-07-03T12:44:56;33.60;51.00
6641;DHT22;3356;49.360;8.266;2022-07-03T12:46:58;33.80;50.30
6641;DHT22;3356;49.360;8.266;2022-07-03T12:49:07;33.50;52.00
6641;DHT22;3356;49.360;8.266;2022-07-03T12:51:09;32.90;51.60
6641;DHT22;3356;49.360;8.266;2022-07-03T12:53:10;32.80;52.90
6641;DHT22;3356;49.360;8.266;2022-07-03T12:55:22;32.90;52.50
6641;DHT22;3356;49.360;8.266;2022-07-03T12:57:24;33.00;54.10
6641;DHT22;3356;49.360;8.266;2022-07-03T12:59:44;33.10;51.40
6641;DHT22;3356;49.360;8.266;2022-07-03T13:02:07;32.70;51.40
6641;DHT22;3356;49.360;8.266;2022-07-03T13:04:09;32.40;52.10
6641;DHT22;3356;49.360;8.266;2022-07-03T13:06:14;32.60;52.80
6641;DHT22;3356;49.360;8.266;2022-07-03T13:08:15;32.20;52.80
6641;DHT22;3356;49.360;8.266;2022-07-03T13:10:18;32.80;54.20
6641;DHT22;3356;49.360;8.266;2022-07-03T13:12:22;32.70;53.00
6641;DHT22;3356;49.360;8.266;2022-07-03T13:14:24;32.90;53.50
6641;DHT22;3356;49.360;8.266;2022-07-03T13:16:26;33.10;53.60
6641;DHT22;3356;49.360;8.266;2022-07-03T13:18:27;33.10;51.80
6641;DHT22;3356;49.360;8.266;2022-07-03T13:20:32;33.10;51.10
6641;DHT22;3356;49.360;8.266;2022-07-03T13:22:33;32.80;52.70
6641;DHT22;3356;49.360;8.266;2022-07-03T13:24:34;32.80;53.80
6641;DHT22;3356;49.360;8.266;2022-07-03T13:26:36;32.80;53.10
6641;DHT22;3356;49.360;8.266;2022-07-03T13:28:37;32.60;55.60
6641;DHT22;3356;49.360;8.266;2022-07-03T13:30:40;32.90;53.90
6641;DHT22;3356;49.360;8.266;2022-07-03T13:32:42;32.80;52.40
6641;DHT22;3356;49.360;8.266;2022-07-03T13:34:43;33.00;53.30
6641;DHT22;3356;49.360;8.266;2022-07-03T13:36:44;33.10;53.30
6641;DHT22;3356;49.360;8.266;2022-07-03T13:38:45;33.00;52.10
6641;DHT22;3356;49.360;8.266;2022-07-03T13:40:47;32.80;53.60
6641;DHT22;3356;49.360;8.266;2022-07-03T13:42:48;32.70;53.80
6641;DHT22;3356;49.360;8.266;2022-07-03T13:44:49;32.80;53.70
6641;DHT22;3356;49.360;8.266;2022-07-03T13:46:54;33.00;52.50
6641;DHT22;3356;49.360;8.266;2022-07-03T13:48:55;32.90;51.50
6641;DHT22;3356;49.360;8.266;2022-07-03T13:50:56;32.60;51.00
6641;DHT22;3356;49.360;8.266;2022-07-03T13:52:57;32.50;52.60
6641;DHT22;3356;49.360;8.266;2022-07-03T13:54:58;32.60;51.00
6641;DHT22;3356;49.360;8.266;2022-07-03T13:57:00;32.60;50.90
6641;DHT22;3356;49.360;8.266;2022-07-03T13:59:01;32.50;50.50
6641;DHT22;3356;49.360;8.266;2022-07-03T14:01:02;32.60;53.10
6641;DHT22;3356;49.360;8.266;2022-07-03T14:03:04;32.70;53.30
6641;DHT22;3356;49.360;8.266;2022-07-03T14:05:06;32.80;52.70
6641;DHT22;3356;49.360;8.266;2022-07-03T14:07:07;32.80;53.10
6641;DHT22;3356;49.360;8.266;2022-07-03T14:09:08;32.60;52.20
6641;DHT22;3356;49.360;8.266;2022-07-03T14:11:10;32.50;53.40
6641;DHT22;3356;49.360;8.266;2022-07-03T14:13:11;32.30;52.90
6641;DHT22;3356;49.360;8.266;2022-07-03T14:15:12;32.30;52.20